createdAt,value
2023-01-20T00:01:27.125Z,24.42
2023-01-20T00:03:55.474Z,28.48
2023-01-20T00:06:23.191Z,26.05
2023-01-20T00:08:54.178Z,31.83
2023-01-20T00:11:21.429Z,25.30
2023-01-20T00:13:48.607Z,28.52
2023-01-20T00:16:15.485Z,27.38
2023-01-20T00:18:42.268Z,28.98
2023-01-20T00:21:14.153Z,25.75
2023-01-20T00:23:41.266Z,27.75
2023-01-20T00:26:16.345Z,30.48
2023-01-20T00:28:43.698Z,28.27
2023-01-20T00:31:20.792Z,27.98
2023-01-20T00:33:49.199Z,30.75
2023-01-20T00:36:17.577Z,28.88
2023-01-20T00:38:44.705Z,27.95
2023-01-20T00:41:11.614Z,29.73
2023-01-20T00:43:38.948Z,26.63
2023-01-20T00:46:06.439Z,28.92
2023-01-20T00:48:33.945Z,28.75
2023-01-20T00:51:01.037Z,30.92
2023-01-20T00:53:28.041Z,27.17
2023-01-20T00:55:54.878Z,26.77
2023-01-20T00:58:21.982Z,29.67
2023-01-20T01:00:53.023Z,25.65
2023-01-20T01:03:20.176Z,28.75
2023-01-20T01:05:47.241Z,31.45
2023-01-20T01:08:14.461Z,28.58
2023-01-20T01:10:41.258Z,29.85
2023-01-20T01:13:08.340Z,31.73
2023-01-20T01:15:35.502Z,29.33
2023-01-20T01:18:02.811Z,27.10
2023-01-20T01:20:29.949Z,30.45
2023-01-20T01:22:56.756Z,28.38
2023-01-20T01:25:24.000Z,28.80
2023-01-20T01:27:50.912Z,26.23
2023-01-20T01:30:17.782Z,29.25
2023-01-20T01:32:44.429Z,28.65
2023-01-20T01:35:11.160Z,28.38
2023-01-20T01:37:37.945Z,31.80
2023-01-20T01:40:05.235Z,28.40
2023-01-20T01:42:31.919Z,30.40
2023-01-20T01:45:11.408Z,32.15
2023-01-20T01:47:42.583Z,32.42
2023-01-20T01:50:14.307Z,29.05
2023-01-20T01:52:44.487Z,28.77
2023-01-20T01:55:12.231Z,29.35
2023-01-20T01:57:39.159Z,28.50
2023-01-20T02:00:07.053Z,29.38
2023-01-20T02:02:33.802Z,29.55
2023-01-20T02:05:00.607Z,32.15
2023-01-20T02:07:27.507Z,32.78
2023-01-20T02:09:54.334Z,27.58
2023-01-20T02:12:22.148Z,29.85
2023-01-20T02:14:54.689Z,24.80
2023-01-20T02:17:44.091Z,30.42
2023-01-20T02:20:24.120Z,32.78
2023-01-20T02:22:53.769Z,26.70
2023-01-20T02:25:20.399Z,33.88
2023-01-20T02:28:05.828Z,30.80
2023-01-20T02:30:54.368Z,32.22
2023-01-20T02:33:56.018Z,35.88
2023-01-20T02:36:31.867Z,33.30
2023-01-20T02:39:06.489Z,34.60
2023-01-20T02:41:54.514Z,36.78
2023-01-20T02:44:31.214Z,34.33
2023-01-20T02:47:04.100Z,34.10
2023-01-20T02:49:39.206Z,31.92
2023-01-20T02:52:18.681Z,31.92
2023-01-20T02:54:49.772Z,31.73
2023-01-20T02:57:22.783Z,34.95
2023-01-20T02:59:53.745Z,41.67
2023-01-20T03:02:24.434Z,35.85
2023-01-20T03:04:57.951Z,34.08
2023-01-20T03:07:27.395Z,30.15
2023-01-20T03:09:58.692Z,31.30
2023-01-20T03:12:36.121Z,30.90
2023-01-20T03:15:03.435Z,34.22
2023-01-20T03:17:30.195Z,31.67
2023-01-20T03:19:57.021Z,32.20
2023-01-20T03:22:23.797Z,36.13
2023-01-20T03:24:51.057Z,32.95
2023-01-20T03:27:17.923Z,32.90
2023-01-20T03:29:44.728Z,34.45
2023-01-20T03:32:12.925Z,34.30
2023-01-20T03:34:42.894Z,36.25
2023-01-20T03:37:12.331Z,38.75
2023-01-20T03:39:39.997Z,35.33
2023-01-20T03:42:39.459Z,34.15
2023-01-20T03:45:09.425Z,30.23
2023-01-20T03:47:57.475Z,32.20
2023-01-20T03:50:40.937Z,38.33
2023-01-20T03:53:24.650Z,36.97
2023-01-20T03:56:10.626Z,35.28
2023-01-20T03:58:40.726Z,33.80
2023-01-20T04:01:18.747Z,30.27
2023-01-20T04:03:48.778Z,35.97
2023-01-20T04:06:17.892Z,36.05
2023-01-20T04:08:56.490Z,30.35
2023-01-20T04:11:23.640Z,32.22
2023-01-20T04:13:50.939Z,36.80
2023-01-20T04:16:19.125Z,35.80
2023-01-20T04:18:48.552Z,33.40
2023-01-20T04:21:29.089Z,34.28
2023-01-20T04:24:03.477Z,42.25
2023-01-20T04:26:30.191Z,35.97
2023-01-20T04:28:56.881Z,33.58
2023-01-20T04:31:30.574Z,37.60
2023-01-20T04:33:57.970Z,33.97
2023-01-20T04:36:24.694Z,34.05
2023-01-20T04:38:51.446Z,37.83
2023-01-20T04:41:18.196Z,31.73
2023-01-20T04:43:46.054Z,30.48
2023-01-20T04:46:16.521Z,37.22
2023-01-20T04:48:44.778Z,31.38
2023-01-20T04:51:11.583Z,37.03
2023-01-20T04:53:38.324Z,37.20
2023-01-20T04:56:10.021Z,29.08
2023-01-20T04:58:36.694Z,30.85
2023-01-20T05:01:03.369Z,31.58
2023-01-20T05:03:30.185Z,29.83
2023-01-20T05:05:56.904Z,37.58
2023-01-20T05:08:23.627Z,34.63
2023-01-20T05:10:50.448Z,34.90
2023-01-20T05:13:17.144Z,31.95
2023-01-20T05:15:44.411Z,32.50
2023-01-20T05:18:11.148Z,40.65
2023-01-20T05:20:37.851Z,40.60
2023-01-20T05:23:04.803Z,34.63
2023-01-20T05:25:31.477Z,43.08
2023-01-20T05:27:59.519Z,42.72
2023-01-20T05:30:26.309Z,34.38
2023-01-20T05:32:53.136Z,30.38
2023-01-20T05:35:20.105Z,32.17
2023-01-20T05:37:46.856Z,35.55
2023-01-20T05:40:14.116Z,33.78
2023-01-20T05:42:40.964Z,30.67
2023-01-20T05:45:09.220Z,33.17
2023-01-20T05:47:36.072Z,32.67
2023-01-20T05:50:03.460Z,33.33
2023-01-20T05:52:30.193Z,45.92
2023-01-20T05:54:56.937Z,44.78
2023-01-20T05:57:27.017Z,37.88
2023-01-20T05:59:55.575Z,36.83
2023-01-20T06:02:22.419Z,34.83
2023-01-20T06:04:49.698Z,30.35
2023-01-20T06:07:16.494Z,33.10
2023-01-20T06:09:43.198Z,33.53
2023-01-20T06:12:09.870Z,30.35
2023-01-20T06:14:36.560Z,30.45
2023-01-20T06:17:03.337Z,34.60
2023-01-20T06:19:30.078Z,38.72
2023-01-20T06:21:56.784Z,33.97
2023-01-20T06:24:23.435Z,29.88
2023-01-20T06:26:51.314Z,38.08
2023-01-20T06:29:18.170Z,30.90
2023-01-20T06:31:45.595Z,38.42
2023-01-20T06:34:12.827Z,41.75
2023-01-20T06:36:39.919Z,35.25
2023-01-20T06:39:06.669Z,38.50
2023-01-20T06:41:33.424Z,35.05
2023-01-20T06:44:00.116Z,37.38
2023-01-20T06:46:26.924Z,34.30
2023-01-20T06:49:00.236Z,38.42
2023-01-20T06:51:28.884Z,37.90
2023-01-20T06:53:56.105Z,58.83
2023-01-20T06:56:23.214Z,37.10
2023-01-20T06:58:50.317Z,40.65
2023-01-20T07:01:29.045Z,31.73
2023-01-20T07:03:55.887Z,38.75
2023-01-20T07:06:28.318Z,39.88
2023-01-20T07:08:58.581Z,31.25
2023-01-20T07:11:25.958Z,34.17
2023-01-20T07:13:52.670Z,32.20
2023-01-20T07:16:19.563Z,33.03
2023-01-20T07:18:52.025Z,34.72
2023-01-20T07:21:19.364Z,28.92
2023-01-20T07:23:46.499Z,34.22
2023-01-20T07:26:19.205Z,34.38
2023-01-20T07:28:46.844Z,34.15
2023-01-20T07:31:19.574Z,36.00
2023-01-20T07:33:46.930Z,35.97
2023-01-20T07:36:14.568Z,34.35
2023-01-20T07:38:41.276Z,36.97
2023-01-20T07:41:11.835Z,39.92
2023-01-20T07:43:38.552Z,40.72
2023-01-20T07:46:05.497Z,36.05
2023-01-20T07:48:33.411Z,38.75
2023-01-20T07:51:05.617Z,37.28
2023-01-20T07:53:38.108Z,37.40
2023-01-20T07:56:13.821Z,39.67
2023-01-20T07:58:40.646Z,43.03
2023-01-20T08:01:13.219Z,33.35
2023-01-20T08:03:40.250Z,33.83
2023-01-20T08:06:09.189Z,32.75
2023-01-20T08:08:36.145Z,36.88
2023-01-20T08:11:04.103Z,41.30
2023-01-20T08:13:31.624Z,42.72
2023-01-20T08:16:07.539Z,34.85
2023-01-20T08:18:35.616Z,34.88
2023-01-20T08:21:08.124Z,42.88
2023-01-20T08:23:36.009Z,36.88
2023-01-20T08:26:05.608Z,33.70
2023-01-20T08:28:37.516Z,36.95
2023-01-20T08:31:12.380Z,34.53
2023-01-20T08:33:42.209Z,33.08
2023-01-20T08:36:13.186Z,39.30
2023-01-20T08:38:40.627Z,32.55
2023-01-20T08:41:13.541Z,39.58
2023-01-20T08:43:40.437Z,43.78
2023-01-20T08:46:14.165Z,38.97
2023-01-20T08:48:42.531Z,33.75
2023-01-20T08:51:15.800Z,38.47
2023-01-20T08:53:43.385Z,33.20
2023-01-20T08:56:11.430Z,40.05
2023-01-20T08:58:38.251Z,36.17
2023-01-20T09:01:09.543Z,33.97
2023-01-20T09:03:36.466Z,33.60
2023-01-20T09:06:04.530Z,34.15
2023-01-20T09:08:31.332Z,42.28
2023-01-20T09:11:10.503Z,35.97
2023-01-20T09:13:37.601Z,35.70
2023-01-20T09:16:05.019Z,42.30
2023-01-20T09:18:32.736Z,35.63
2023-01-20T09:21:00.141Z,45.88
2023-01-20T09:23:26.949Z,44.15
2023-01-20T09:25:53.873Z,36.45
2023-01-20T09:28:20.770Z,44.20
2023-01-20T09:30:47.580Z,49.08
2023-01-20T09:33:15.059Z,44.92
2023-01-20T09:35:41.764Z,42.13
2023-01-20T09:38:28.571Z,37.78
2023-01-20T09:41:49.237Z,37.45
2023-01-20T09:44:27.608Z,34.05
2023-01-20T09:47:21.645Z,40.50
2023-01-20T09:50:49.912Z,47.28
2023-01-20T09:53:42.970Z,41.83
2023-01-20T09:56:16.503Z,42.55
2023-01-20T09:59:05.268Z,48.42
2023-01-20T10:01:57.129Z,39.45
2023-01-20T10:04:26.883Z,34.60
2023-01-20T10:07:22.594Z,45.50
2023-01-20T10:10:12.308Z,39.22
2023-01-20T10:13:02.077Z,39.95
2023-01-20T10:15:35.053Z,36.78
2023-01-20T10:18:14.887Z,40.75
2023-01-20T10:20:51.028Z,40.10
2023-01-20T10:23:42.862Z,39.47
2023-01-20T10:26:30.884Z,41.85
2023-01-20T10:29:07.269Z,42.90
2023-01-20T10:31:40.770Z,45.00
2023-01-20T10:34:12.671Z,35.70
2023-01-20T10:36:43.315Z,37.55
2023-01-20T10:39:49.185Z,43.67
2023-01-20T10:42:18.663Z,39.08
2023-01-20T10:44:47.040Z,40.22
2023-01-20T10:47:32.479Z,47.22
2023-01-20T10:50:02.174Z,36.72
2023-01-20T10:52:46.128Z,37.22
2023-01-20T10:56:06.555Z,34.50
2023-01-20T10:58:39.222Z,38.50
2023-01-20T11:01:10.450Z,44.33
2023-01-20T11:03:41.616Z,39.45
2023-01-20T11:06:18.192Z,35.30
2023-01-20T11:08:44.990Z,41.83
2023-01-20T11:11:17.772Z,37.67
2023-01-20T11:13:44.610Z,45.13
2023-01-20T11:16:23.066Z,40.92
2023-01-20T11:19:04.710Z,41.70
2023-01-20T11:21:35.851Z,35.25
2023-01-20T11:24:21.822Z,43.58
2023-01-20T11:26:48.587Z,41.85
2023-01-20T11:29:15.206Z,45.72
2023-01-20T11:31:50.018Z,45.17
2023-01-20T11:34:24.218Z,41.88
2023-01-20T11:39:30.769Z,51.22
2023-01-20T11:42:23.975Z,49.92
2023-01-20T11:44:50.586Z,51.70
2023-01-20T11:47:26.415Z,47.47
2023-01-20T11:50:08.028Z,48.25
2023-01-20T11:52:47.152Z,52.42
2023-01-20T11:55:24.634Z,52.20
2023-01-20T11:57:58.523Z,57.90
2023-01-20T12:00:41.093Z,49.97
2023-01-20T12:03:10.749Z,47.40
2023-01-20T12:05:49.527Z,50.83
2023-01-20T12:08:25.914Z,47.92
2023-01-20T12:10:55.526Z,50.50
2023-01-20T12:14:13.300Z,43.90
2023-01-20T12:16:40.827Z,54.35
2023-01-20T12:19:15.211Z,51.42
2023-01-20T12:21:48.023Z,58.30
2023-01-20T12:25:01.213Z,48.83
2023-01-20T12:27:28.484Z,57.45
2023-01-20T12:30:02.039Z,52.22
2023-01-20T12:32:29.794Z,53.97
2023-01-20T12:34:56.626Z,52.50
2023-01-20T12:37:43.269Z,53.63
2023-01-20T12:40:28.748Z,57.72
2023-01-20T12:43:16.557Z,53.28
2023-01-20T12:45:46.270Z,59.03
2023-01-20T12:48:46.804Z,59.40
2023-01-20T12:51:45.799Z,49.20
2023-01-20T12:54:23.731Z,55.25
2023-01-20T12:57:05.467Z,88.47
2023-01-20T12:59:59.921Z,53.90
2023-01-20T13:02:38.832Z,58.25
2023-01-20T13:05:26.914Z,50.58
2023-01-20T13:08:10.560Z,56.05
2023-01-20T13:10:51.653Z,57.28
2023-01-20T13:13:26.268Z,49.25
2023-01-20T13:15:55.684Z,53.00
2023-01-20T13:18:34.020Z,49.22
2023-01-20T13:21:00.766Z,48.42
2023-01-20T13:23:36.875Z,46.55
2023-01-20T13:26:05.890Z,47.83
2023-01-20T13:28:32.870Z,54.70
2023-01-20T13:31:01.768Z,51.95
2023-01-20T13:33:42.196Z,47.85
2023-01-20T13:36:18.494Z,47.80
2023-01-20T13:38:46.654Z,47.63
2023-01-20T13:41:51.944Z,47.63
2023-01-20T13:44:40.818Z,51.15
2023-01-20T13:47:10.853Z,49.60
2023-01-20T13:49:53.091Z,57.38
2023-01-20T13:52:51.167Z,47.00
2023-01-20T13:55:45.855Z,51.40
2023-01-20T13:58:16.312Z,48.90
2023-01-20T14:00:43.633Z,53.53
2023-01-20T14:03:30.635Z,51.17
2023-01-20T14:06:14.014Z,50.35
2023-01-20T14:08:41.827Z,49.53
2023-01-20T14:11:17.527Z,50.80
2023-01-20T14:13:53.211Z,57.88
2023-01-20T14:16:27.154Z,55.75
2023-01-20T14:19:02.397Z,57.05
2023-01-20T14:21:31.167Z,55.53
2023-01-20T14:23:58.573Z,54.78
2023-01-20T14:26:30.804Z,57.42
2023-01-20T14:28:59.863Z,54.15
2023-01-20T14:31:44.057Z,54.85
2023-01-20T14:34:26.759Z,58.67
2023-01-20T14:36:55.395Z,46.65
2023-01-20T14:39:27.425Z,54.88
2023-01-20T14:42:01.488Z,65.35
2023-01-20T14:44:32.576Z,62.25
2023-01-20T14:47:02.465Z,58.33
2023-01-20T14:49:34.637Z,62.35
2023-01-20T14:52:02.241Z,52.13
2023-01-20T14:54:36.930Z,50.83
2023-01-20T14:57:22.449Z,53.78
2023-01-20T15:00:11.230Z,53.15
2023-01-20T15:02:39.548Z,58.10
2023-01-20T15:05:51.889Z,52.65
2023-01-20T15:08:25.993Z,54.78
2023-01-20T15:11:18.159Z,52.15
2023-01-20T15:14:02.487Z,51.50
2023-01-20T15:16:36.244Z,55.00
2023-01-20T15:19:18.487Z,53.80
2023-01-20T15:21:48.125Z,56.28
2023-01-20T15:24:23.039Z,54.42
2023-01-20T15:26:52.331Z,55.13
2023-01-20T15:29:34.687Z,54.47
2023-01-20T15:32:09.873Z,55.97
2023-01-20T15:34:36.620Z,53.53
2023-01-20T15:37:09.274Z,61.90
2023-01-20T15:39:36.013Z,54.42
2023-01-20T15:42:02.926Z,57.10
2023-01-20T15:44:29.687Z,55.08
2023-01-20T15:46:57.616Z,53.03
2023-01-20T15:49:25.219Z,50.72
2023-01-20T15:51:52.221Z,51.95
2023-01-20T15:54:19.061Z,50.50
2023-01-20T15:56:45.835Z,57.30
2023-01-20T15:59:18.351Z,58.20
2023-01-20T16:01:47.211Z,54.85
2023-01-20T16:04:14.136Z,59.58
2023-01-20T16:06:41.039Z,53.47
2023-01-20T16:09:29.750Z,55.60
2023-01-20T16:11:56.585Z,55.08
2023-01-20T16:14:23.235Z,52.70
2023-01-20T16:16:50.095Z,52.63
2023-01-20T16:19:17.320Z,53.30
2023-01-20T16:21:45.603Z,52.80
2023-01-20T16:24:13.179Z,57.97
2023-01-20T16:26:40.493Z,56.58
2023-01-20T16:29:09.453Z,53.28
2023-01-20T16:31:36.413Z,53.72
2023-01-20T16:34:04.280Z,60.42
2023-01-20T16:36:31.075Z,58.83
2023-01-20T16:38:57.720Z,56.10
2023-01-20T16:41:30.865Z,54.90
2023-01-20T16:43:58.452Z,54.75
2023-01-20T16:46:29.934Z,59.63
2023-01-20T16:49:01.890Z,63.67
2023-01-20T16:51:29.509Z,63.22
2023-01-20T16:53:57.109Z,60.60
2023-01-20T16:56:27.651Z,58.60
2023-01-20T16:58:57.684Z,51.38
2023-01-20T17:01:25.577Z,48.53
2023-01-20T17:03:54.262Z,53.20
2023-01-20T17:06:23.239Z,55.70
2023-01-20T17:08:52.546Z,58.78
2023-01-20T17:11:26.404Z,56.60
2023-01-20T17:13:54.064Z,54.17
2023-01-20T17:16:21.226Z,63.67
2023-01-20T17:18:52.976Z,51.78
2023-01-20T17:21:20.875Z,53.67
2023-01-20T17:23:53.701Z,52.28
2023-01-20T17:26:20.782Z,53.53
2023-01-20T17:28:48.240Z,54.42
2023-01-20T17:31:15.067Z,59.55
2023-01-20T17:33:48.554Z,52.78
2023-01-20T17:36:16.876Z,54.20
2023-01-20T17:38:43.825Z,60.08
2023-01-20T17:41:11.565Z,51.55
2023-01-20T17:43:41.083Z,53.15
2023-01-20T17:46:19.569Z,53.15
2023-01-20T17:48:46.873Z,53.90
2023-01-20T17:51:19.363Z,53.70
2023-01-20T17:53:46.725Z,52.78
2023-01-20T17:56:14.741Z,57.53
2023-01-20T17:58:43.339Z,56.17
2023-01-20T18:01:20.005Z,77.65
2023-01-20T18:03:49.150Z,50.75
2023-01-20T18:06:17.993Z,75.57
2023-01-20T18:08:49.873Z,120.95
2023-01-20T18:11:16.591Z,82.45
2023-01-20T18:13:45.614Z,57.90
2023-01-20T18:16:14.087Z,59.22
2023-01-20T18:18:43.226Z,58.00
2023-01-20T18:21:14.399Z,62.47
2023-01-20T18:23:41.841Z,56.72
2023-01-20T18:26:09.670Z,57.17
2023-01-20T18:28:37.538Z,58.95
2023-01-20T18:31:09.734Z,64.50
2023-01-20T18:33:39.638Z,51.08
2023-01-20T18:36:07.874Z,50.28
2023-01-20T18:38:34.691Z,61.95
2023-01-20T18:41:04.135Z,60.72
2023-01-20T18:43:31.250Z,57.13
2023-01-20T18:45:58.043Z,57.78
2023-01-20T18:48:25.357Z,49.85
2023-01-20T18:50:57.961Z,48.67
2023-01-20T18:53:24.655Z,51.90
2023-01-20T18:55:51.286Z,53.53
2023-01-20T18:58:18.024Z,53.58
2023-01-20T19:00:44.671Z,53.45
2023-01-20T19:03:11.387Z,48.63
2023-01-20T19:05:38.107Z,50.67
2023-01-20T19:08:05.207Z,45.28
2023-01-20T19:10:31.965Z,46.30
2023-01-20T19:12:58.578Z,47.67
2023-01-20T19:15:25.455Z,38.83
2023-01-20T19:17:52.332Z,52.38
2023-01-20T19:20:19.096Z,45.47
2023-01-20T19:22:45.755Z,43.40
2023-01-20T19:25:12.502Z,45.60
2023-01-20T19:27:39.158Z,40.65
2023-01-20T19:30:06.684Z,43.38
2023-01-20T19:32:33.341Z,41.25
2023-01-20T19:35:00.020Z,40.20
2023-01-20T19:37:27.908Z,36.70
2023-01-20T19:39:54.563Z,40.00
2023-01-20T19:42:21.223Z,36.72
2023-01-20T19:44:47.900Z,37.38
2023-01-20T19:47:14.749Z,35.13
2023-01-20T19:49:41.932Z,40.25
2023-01-20T19:52:08.700Z,37.03
2023-01-20T19:54:36.821Z,39.38
2023-01-20T19:57:03.834Z,38.92
2023-01-20T19:59:30.575Z,37.40
2023-01-20T20:01:57.277Z,38.22
2023-01-20T20:04:25.378Z,44.42
2023-01-20T20:06:52.293Z,35.05
2023-01-20T20:09:21.142Z,39.72
2023-01-20T20:11:49.041Z,33.53
2023-01-20T20:14:19.301Z,38.05
2023-01-20T20:16:46.354Z,39.63
2023-01-20T20:19:16.188Z,39.63
2023-01-20T20:21:43.220Z,40.55
2023-01-20T20:24:15.109Z,39.00
2023-01-20T20:26:42.121Z,35.97
2023-01-20T20:29:10.236Z,42.22
2023-01-20T20:31:40.047Z,45.17
2023-01-20T20:34:08.786Z,36.10
2023-01-20T20:36:35.874Z,46.20
2023-01-20T20:39:03.965Z,42.67
2023-01-20T20:41:33.175Z,42.95
2023-01-20T20:44:01.545Z,44.08
2023-01-20T20:46:29.557Z,38.90
2023-01-20T20:48:59.410Z,36.67
2023-01-20T20:51:27.565Z,37.13
2023-01-20T20:53:58.137Z,43.70
2023-01-20T20:56:27.861Z,36.25
2023-01-20T20:59:01.820Z,32.90
2023-01-20T21:01:30.977Z,35.22
2023-01-20T21:04:00.191Z,32.58
2023-01-20T21:06:26.950Z,35.50
2023-01-20T21:08:53.597Z,31.67
2023-01-20T21:11:20.777Z,33.63
2023-01-20T21:13:49.382Z,29.48
2023-01-20T21:16:20.784Z,28.88
2023-01-20T21:18:48.253Z,29.50
2023-01-20T21:21:17.030Z,28.80
2023-01-20T21:23:47.364Z,26.00
2023-01-20T21:26:14.076Z,28.90
2023-01-20T21:28:42.604Z,31.25
2023-01-20T21:31:15.711Z,27.75
2023-01-20T21:33:45.813Z,33.57
2023-01-20T21:36:13.322Z,35.55
2023-01-20T21:38:46.306Z,34.63
2023-01-20T21:41:14.536Z,29.03
2023-01-20T21:44:02.247Z,39.63
2023-01-20T21:46:31.697Z,30.30
2023-01-20T21:49:16.884Z,32.00
2023-01-20T21:52:02.331Z,32.55
2023-01-20T21:54:30.397Z,32.05
2023-01-20T21:56:57.524Z,26.25
2023-01-20T21:59:24.288Z,33.15
2023-01-20T22:01:51.747Z,28.33
2023-01-20T22:04:18.804Z,32.13
2023-01-20T22:06:45.815Z,29.35
2023-01-20T22:09:12.815Z,30.38
2023-01-20T22:11:39.546Z,32.20
2023-01-20T22:14:06.299Z,32.90
2023-01-20T22:16:33.209Z,35.25
2023-01-20T22:19:00.025Z,32.22
2023-01-20T22:21:26.901Z,33.67
2023-01-20T22:23:53.792Z,33.60
2023-01-20T22:26:20.962Z,34.78
2023-01-20T22:28:47.602Z,40.13
2023-01-20T22:31:19.773Z,43.65
2023-01-20T22:33:53.812Z,40.83
2023-01-20T22:36:21.637Z,45.05
2023-01-20T22:38:52.980Z,40.17
2023-01-20T22:41:20.377Z,37.47
2023-01-20T22:43:48.060Z,38.53
2023-01-20T22:46:17.133Z,36.15
2023-01-20T22:48:43.870Z,41.57
2023-01-20T22:51:16.087Z,36.10
2023-01-20T22:53:43.252Z,34.70
2023-01-20T22:56:15.819Z,39.10
2023-01-20T22:58:44.305Z,33.33
2023-01-20T23:01:20.957Z,31.05
2023-01-20T23:03:48.941Z,36.95
2023-01-20T23:06:15.746Z,35.60
2023-01-20T23:08:42.560Z,40.20
2023-01-20T23:11:12.486Z,31.20
2023-01-20T23:13:39.954Z,41.13
2023-01-20T23:16:09.980Z,39.72
2023-01-20T23:18:36.971Z,37.28
2023-01-20T23:21:05.779Z,35.80
2023-01-20T23:23:32.558Z,35.83
2023-01-20T23:26:15.543Z,34.60
2023-01-20T23:28:43.610Z,35.42
2023-01-20T23:31:12.558Z,34.47
2023-01-20T23:33:40.814Z,34.28
2023-01-20T23:36:13.851Z,36.63
2023-01-20T23:38:41.073Z,32.50
2023-01-20T23:41:07.853Z,37.92
2023-01-20T23:43:34.706Z,40.17
2023-01-20T23:46:04.129Z,40.13
2023-01-20T23:48:31.489Z,35.88
2023-01-20T23:51:01.908Z,39.63
2023-01-20T23:53:31.341Z,34.73
2023-01-20T23:56:02.438Z,37.97
2023-01-20T23:58:29.561Z,38.13
